createdAt,value
2022-07-29T00:01:51.472Z,52.94
2022-07-29T00:04:18.387Z,53.21
2022-07-29T00:06:45.238Z,52.96
2022-07-29T00:09:13.113Z,53.20
2022-07-29T00:11:39.611Z,53.20
2022-07-29T00:14:06.318Z,52.45
2022-07-29T00:16:32.901Z,52.26
2022-07-29T00:19:02.084Z,51.77
2022-07-29T00:21:29.068Z,51.94
2022-07-29T00:23:55.680Z,53.81
2022-07-29T00:26:23.998Z,52.77
2022-07-29T00:28:50.540Z,53.73
2022-07-29T00:31:17.213Z,53.20
2022-07-29T00:33:43.758Z,52.68
2022-07-29T00:36:10.277Z,53.42
2022-07-29T00:38:36.807Z,53.63
2022-07-29T00:41:03.345Z,53.52
2022-07-29T00:43:31.500Z,53.27
2022-07-29T00:45:58.023Z,54.04
2022-07-29T00:48:24.558Z,54.62
2022-07-29T00:50:51.369Z,54.98
2022-07-29T00:53:18.033Z,55.15
2022-07-29T00:55:44.589Z,55.11
2022-07-29T00:58:13.052Z,55.74
2022-07-29T01:00:41.012Z,55.56
2022-07-29T01:03:08.040Z,55.02
2022-07-29T01:05:50.682Z,55.81
2022-07-29T01:08:18.450Z,56.26
2022-07-29T01:10:46.569Z,55.85
2022-07-29T01:13:14.298Z,55.51
2022-07-29T01:15:49.125Z,54.53
2022-07-29T01:18:22.282Z,54.40
2022-07-29T01:21:21.326Z,55.16
2022-07-29T01:24:00.261Z,56.29
2022-07-29T01:26:38.881Z,56.46
2022-07-29T01:29:13.653Z,56.75
2022-07-29T01:31:59.301Z,57.34
2022-07-29T01:34:35.701Z,57.41
2022-07-29T01:37:08.771Z,56.92
2022-07-29T01:39:38.238Z,56.64
2022-07-29T01:42:13.570Z,57.44
2022-07-29T01:44:49.402Z,58.14
2022-07-29T01:47:21.398Z,58.35
2022-07-29T01:49:52.088Z,58.02
2022-07-29T01:52:22.768Z,57.82
2022-07-29T01:54:55.553Z,58.43
2022-07-29T01:57:28.860Z,58.39
2022-07-29T01:59:59.235Z,58.00
2022-07-29T02:02:29.207Z,58.13
2022-07-29T02:04:57.187Z,58.49
2022-07-29T02:07:28.578Z,59.06
2022-07-29T02:09:56.457Z,58.80
2022-07-29T02:12:25.086Z,59.51
2022-07-29T02:14:54.619Z,60.05
2022-07-29T02:17:27.047Z,59.73
2022-07-29T02:19:56.904Z,59.54
2022-07-29T02:22:25.038Z,59.49
2022-07-29T02:24:53.946Z,58.97
2022-07-29T02:27:21.526Z,59.69
2022-07-29T02:29:51.030Z,60.15
2022-07-29T02:32:18.822Z,61.24
2022-07-29T02:34:48.321Z,60.96
2022-07-29T02:37:17.599Z,61.04
2022-07-29T02:39:45.749Z,61.83
2022-07-29T02:42:16.439Z,59.29
2022-07-29T02:44:43.506Z,58.18
2022-07-29T02:47:17.354Z,57.37
2022-07-29T02:49:54.407Z,56.95
2022-07-29T02:52:25.134Z,56.64
2022-07-29T02:54:55.835Z,56.35
2022-07-29T02:57:29.668Z,55.67
2022-07-29T02:59:59.110Z,55.34
2022-07-29T03:02:27.903Z,55.17
2022-07-29T03:04:57.489Z,55.27
2022-07-29T03:07:25.468Z,54.65
2022-07-29T03:09:53.270Z,54.28
2022-07-29T03:12:20.515Z,54.89
2022-07-29T03:14:47.948Z,54.67
2022-07-29T03:19:49.450Z,53.88
2022-07-29T03:22:19.213Z,54.09
2022-07-29T03:24:45.992Z,53.94
2022-07-29T03:27:13.982Z,54.01
2022-07-29T03:29:40.490Z,53.78
2022-07-29T03:32:10.199Z,53.47
2022-07-29T03:34:38.019Z,53.54
2022-07-29T03:37:04.890Z,53.29
2022-07-29T03:39:36.178Z,53.52
2022-07-29T03:42:05.422Z,53.35
2022-07-29T03:44:33.535Z,53.14
2022-07-29T03:47:01.502Z,53.53
2022-07-29T03:49:29.151Z,53.06
2022-07-29T03:51:56.195Z,53.18
2022-07-29T03:54:23.618Z,53.46
2022-07-29T03:56:53.976Z,53.82
2022-07-29T03:59:21.975Z,53.43
2022-07-29T04:01:49.659Z,53.89
2022-07-29T04:04:16.793Z,53.67
2022-07-29T04:06:45.766Z,53.79
2022-07-29T04:09:14.876Z,53.92
2022-07-29T04:11:57.131Z,53.83
2022-07-29T04:14:30.932Z,53.90
2022-07-29T04:16:57.414Z,53.79
2022-07-29T04:19:23.931Z,54.27
2022-07-29T04:21:50.499Z,55.85
2022-07-29T04:24:17.755Z,56.42
2022-07-29T04:26:46.329Z,56.07
2022-07-29T04:29:12.839Z,56.14
2022-07-29T04:31:41.393Z,56.67
2022-07-29T04:34:08.383Z,57.61
2022-07-29T04:36:34.883Z,57.39
2022-07-29T04:39:01.440Z,58.06
2022-07-29T04:41:32.734Z,58.05
2022-07-29T04:44:00.285Z,58.19
2022-07-29T04:46:28.209Z,58.54
2022-07-29T04:48:56.189Z,59.02
2022-07-29T04:51:22.870Z,59.40
2022-07-29T04:53:49.369Z,58.69
2022-07-29T04:56:15.874Z,58.41
2022-07-29T04:58:42.415Z,60.10
2022-07-29T05:01:09.004Z,60.62
2022-07-29T05:03:35.563Z,60.25
2022-07-29T05:06:03.558Z,61.30
2022-07-29T05:08:30.151Z,60.99
2022-07-29T05:10:56.876Z,60.92
2022-07-29T05:13:23.365Z,61.42
2022-07-29T05:15:49.971Z,60.94
2022-07-29T05:18:16.631Z,60.36
2022-07-29T05:20:43.150Z,61.27
2022-07-29T05:23:11.359Z,59.38
2022-07-29T05:25:43.239Z,58.83
2022-07-29T05:28:10.561Z,61.79
2022-07-29T05:30:37.149Z,61.39
2022-07-29T05:33:03.678Z,61.70
2022-07-29T05:35:30.339Z,61.63
2022-07-29T05:37:56.921Z,63.28
2022-07-29T05:40:25.034Z,63.21
2022-07-29T05:42:51.524Z,62.27
2022-07-29T05:45:18.116Z,62.31
2022-07-29T05:47:44.666Z,62.98
2022-07-29T05:50:11.206Z,63.93
2022-07-29T05:52:37.747Z,64.80
2022-07-29T05:55:04.900Z,64.39
2022-07-29T05:57:33.104Z,65.01
2022-07-29T05:59:59.682Z,65.14
2022-07-29T06:02:26.232Z,64.89
2022-07-29T06:04:53.087Z,64.93
2022-07-29T06:07:19.622Z,63.79
2022-07-29T06:09:46.210Z,65.09
2022-07-29T06:12:12.803Z,65.25
2022-07-29T06:14:40.728Z,64.41
2022-07-29T06:17:07.261Z,64.89
2022-07-29T06:19:35.618Z,66.03
2022-07-29T06:22:02.127Z,66.32
2022-07-29T06:24:28.793Z,65.33
2022-07-29T06:26:55.369Z,64.58
2022-07-29T06:29:21.921Z,65.35
2022-07-29T06:31:49.852Z,66.75
2022-07-29T06:34:16.854Z,65.96
2022-07-29T06:36:44.319Z,65.30
2022-07-29T06:39:12.589Z,65.40
2022-07-29T06:41:39.131Z,64.44
2022-07-29T06:44:05.740Z,63.49
2022-07-29T06:46:32.841Z,63.09
2022-07-29T06:49:00.933Z,61.46
2022-07-29T06:51:27.534Z,60.75
2022-07-29T06:53:59.418Z,60.02
2022-07-29T06:56:30.312Z,60.03
2022-07-29T06:58:56.839Z,57.72
2022-07-29T07:01:23.471Z,56.83
2022-07-29T07:03:50.043Z,56.78
2022-07-29T07:06:17.946Z,58.34
2022-07-29T07:08:44.620Z,58.02
2022-07-29T07:11:11.259Z,57.59
2022-07-29T07:13:37.848Z,57.90
2022-07-29T07:16:05.407Z,55.85
2022-07-29T07:18:32.200Z,57.04
2022-07-29T07:20:59.281Z,56.47
2022-07-29T07:23:27.159Z,56.26
2022-07-29T07:25:53.795Z,55.87
2022-07-29T07:28:24.508Z,56.65
2022-07-29T07:30:51.746Z,56.02
2022-07-29T07:33:18.374Z,55.23
2022-07-29T07:35:44.972Z,53.75
2022-07-29T07:38:11.529Z,52.92
2022-07-29T07:40:39.564Z,51.46
2022-07-29T07:43:06.162Z,52.08
2022-07-29T07:45:33.155Z,51.15
2022-07-29T07:47:59.712Z,51.17
2022-07-29T07:50:27.723Z,51.87
2022-07-29T07:52:56.257Z,51.80
2022-07-29T07:55:22.794Z,51.25
2022-07-29T07:57:50.727Z,49.68
2022-07-29T08:00:18.146Z,49.74
2022-07-29T08:02:45.458Z,49.80
2022-07-29T08:05:13.140Z,49.44
2022-07-29T08:07:40.018Z,48.99
2022-07-29T08:10:08.326Z,47.79
2022-07-29T08:12:34.878Z,48.07
2022-07-29T08:15:03.134Z,48.10
2022-07-29T08:17:29.660Z,47.27
2022-07-29T08:19:56.214Z,46.90
2022-07-29T08:22:22.746Z,46.19
2022-07-29T08:24:49.336Z,46.46
2022-07-29T08:27:42.030Z,44.59
2022-07-29T08:30:04.559Z,43.95
2022-07-29T08:32:52.724Z,43.74
2022-07-29T08:35:17.677Z,44.60
2022-07-29T08:37:44.208Z,45.01
2022-07-29T08:40:11.817Z,44.88
2022-07-29T08:42:38.538Z,44.01
2022-07-29T08:45:08.102Z,44.41
2022-07-29T08:47:34.674Z,43.92
2022-07-29T08:50:01.249Z,43.56
2022-07-29T08:52:29.792Z,44.57
2022-07-29T08:54:56.522Z,45.72
2022-07-29T08:57:23.874Z,46.45
2022-07-29T08:59:53.336Z,45.81
2022-07-29T09:02:22.951Z,46.29
2022-07-29T09:04:50.021Z,45.78
2022-07-29T09:07:20.105Z,44.77
2022-07-29T09:09:47.315Z,43.29
2022-07-29T09:12:13.877Z,42.59
2022-07-29T09:14:55.598Z,41.84
2022-07-29T09:17:45.263Z,40.52
2022-07-29T09:20:14.153Z,42.02
2022-07-29T09:22:42.255Z,42.81
2022-07-29T09:25:09.523Z,42.52
2022-07-29T09:27:36.191Z,42.69
2022-07-29T09:30:05.726Z,42.90
2022-07-29T09:32:33.309Z,42.85
2022-07-29T09:35:18.169Z,43.36
2022-07-29T09:37:45.670Z,42.59
2022-07-29T09:40:14.315Z,42.89
2022-07-29T09:42:40.878Z,42.27
2022-07-29T09:45:08.184Z,43.35
2022-07-29T09:47:45.348Z,44.18
2022-07-29T09:50:12.105Z,42.90
2022-07-29T09:52:47.973Z,42.90
2022-07-29T09:55:18.143Z,44.14
2022-07-29T09:57:47.806Z,44.10
2022-07-29T10:00:17.726Z,43.90
2022-07-29T10:02:45.792Z,44.79
2022-07-29T10:05:21.055Z,44.60
2022-07-29T10:07:53.964Z,44.23
2022-07-29T10:10:25.819Z,42.24
2022-07-29T10:12:53.586Z,43.42
2022-07-29T10:15:22.679Z,43.68
2022-07-29T10:17:49.892Z,43.40
2022-07-29T10:20:16.810Z,43.42
2022-07-29T10:22:53.178Z,42.80
2022-07-29T10:25:22.447Z,43.96
2022-07-29T10:27:49.859Z,43.99
2022-07-29T10:30:17.244Z,44.29
2022-07-29T10:33:07.514Z,45.10
2022-07-29T10:36:06.037Z,43.07
2022-07-29T10:38:45.782Z,42.52
2022-07-29T10:41:44.315Z,43.71
2022-07-29T10:44:19.015Z,44.57
2022-07-29T10:46:46.821Z,43.67
2022-07-29T10:49:15.848Z,43.22
2022-07-29T10:52:03.626Z,42.85
2022-07-29T10:54:44.544Z,42.26
2022-07-29T10:57:19.002Z,42.89
2022-07-29T10:59:48.767Z,41.89
2022-07-29T11:02:43.805Z,42.62
2022-07-29T11:05:12.100Z,42.17
2022-07-29T11:07:45.528Z,42.33
2022-07-29T11:10:27.066Z,42.28
2022-07-29T11:12:59.473Z,41.63
2022-07-29T11:15:28.478Z,41.84
2022-07-29T11:18:08.250Z,40.32
2022-07-29T11:20:44.073Z,39.84
2022-07-29T11:23:25.861Z,42.09
2022-07-29T11:26:18.816Z,41.33
2022-07-29T11:28:58.415Z,40.68
2022-07-29T11:31:37.777Z,40.46
2022-07-29T11:34:28.022Z,37.60
2022-07-29T11:37:16.222Z,38.33
2022-07-29T11:39:45.289Z,38.54
2022-07-29T11:42:41.831Z,38.36
2022-07-29T11:45:43.798Z,39.14
2022-07-29T11:48:27.751Z,38.56
2022-07-29T11:50:48.373Z,39.02
2022-07-29T11:53:15.545Z,38.52
2022-07-29T11:55:50.591Z,38.72
2022-07-29T11:58:22.683Z,38.50
2022-07-29T12:00:55.630Z,38.78
2022-07-29T12:03:32.797Z,38.50
2022-07-29T12:06:00.318Z,38.27
2022-07-29T12:08:26.997Z,38.70
2022-07-29T12:10:53.581Z,38.40
2022-07-29T12:13:22.204Z,38.41
2022-07-29T12:16:00.000Z,36.72
2022-07-29T12:18:27.030Z,36.60
2022-07-29T12:20:58.795Z,37.39
2022-07-29T12:23:25.614Z,37.25
2022-07-29T12:25:56.307Z,36.53
2022-07-29T12:28:27.652Z,36.78
2022-07-29T12:30:55.650Z,36.73
2022-07-29T12:33:24.913Z,37.89
2022-07-29T12:36:03.810Z,38.19
2022-07-29T12:38:34.083Z,39.12
2022-07-29T12:41:00.682Z,37.79
2022-07-29T12:43:27.658Z,38.73
2022-07-29T12:45:57.120Z,38.33
2022-07-29T12:48:34.838Z,38.77
2022-07-29T12:51:02.666Z,38.84
2022-07-29T12:53:29.931Z,39.30
2022-07-29T12:55:58.045Z,39.96
2022-07-29T12:58:33.769Z,40.23
2022-07-29T13:01:04.640Z,41.36
2022-07-29T13:03:43.558Z,41.93
2022-07-29T13:06:36.527Z,41.66
2022-07-29T13:09:13.925Z,41.68
2022-07-29T13:11:46.518Z,41.46
2022-07-29T13:14:30.230Z,43.11
2022-07-29T13:17:06.548Z,42.47
2022-07-29T13:19:38.608Z,42.43
2022-07-29T13:22:05.358Z,41.48
2022-07-29T13:24:31.908Z,41.70
2022-07-29T13:26:58.527Z,42.62
2022-07-29T13:29:26.576Z,42.83
2022-07-29T13:31:57.099Z,42.45
2022-07-29T13:34:25.127Z,42.03
2022-07-29T13:36:51.661Z,42.07
2022-07-29T13:39:18.205Z,41.12
2022-07-29T13:41:44.729Z,41.08
2022-07-29T13:44:11.935Z,41.90
2022-07-29T13:46:39.982Z,41.07
2022-07-29T13:49:06.833Z,42.02
2022-07-29T13:51:34.753Z,43.01
2022-07-29T13:54:01.309Z,41.60
2022-07-29T13:56:29.207Z,41.24
2022-07-29T13:58:55.769Z,42.44
2022-07-29T14:01:22.686Z,42.08
2022-07-29T14:03:49.311Z,42.14
2022-07-29T14:06:15.938Z,39.96
2022-07-29T14:08:46.149Z,41.58
2022-07-29T14:11:12.698Z,40.04
2022-07-29T14:13:39.261Z,40.96
2022-07-29T14:16:06.570Z,41.40
2022-07-29T14:18:33.256Z,43.04
2022-07-29T14:21:00.010Z,42.11
2022-07-29T14:23:26.577Z,42.59
2022-07-29T14:25:54.468Z,44.50
2022-07-29T14:28:21.066Z,44.87
2022-07-29T14:30:47.954Z,44.42
2022-07-29T14:33:14.526Z,43.62
2022-07-29T14:35:41.100Z,45.38
2022-07-29T14:38:07.657Z,42.43
2022-07-29T14:40:34.698Z,41.98
2022-07-29T14:43:03.007Z,42.15
2022-07-29T14:45:30.090Z,41.89
2022-07-29T14:47:57.308Z,41.87
2022-07-29T14:50:31.781Z,42.39
2022-07-29T14:52:58.949Z,41.72
2022-07-29T14:55:25.720Z,43.11
2022-07-29T14:57:55.439Z,43.27
2022-07-29T15:00:26.654Z,44.10
2022-07-29T15:03:02.025Z,45.27
2022-07-29T15:05:29.506Z,44.50
2022-07-29T15:07:56.075Z,44.38
2022-07-29T15:10:22.685Z,45.01
2022-07-29T15:12:51.438Z,44.29
2022-07-29T15:15:18.108Z,43.65
2022-07-29T15:17:46.002Z,44.11
2022-07-29T15:20:12.633Z,44.01
2022-07-29T15:22:39.531Z,44.22
2022-07-29T15:25:07.031Z,44.27
2022-07-29T15:27:33.796Z,44.39
2022-07-29T15:30:00.360Z,44.40
2022-07-29T15:32:27.159Z,44.78
2022-07-29T15:34:55.093Z,44.28
2022-07-29T15:37:21.636Z,44.85
2022-07-29T15:39:48.174Z,45.41
2022-07-29T15:42:14.709Z,46.18
2022-07-29T15:44:44.433Z,46.46
2022-07-29T15:47:11.051Z,47.48
2022-07-29T15:49:47.525Z,47.33
2022-07-29T15:52:18.789Z,48.00
2022-07-29T15:54:45.679Z,48.23
2022-07-29T15:57:12.521Z,48.04
2022-07-29T15:59:39.139Z,47.73
2022-07-29T16:02:06.486Z,47.35
2022-07-29T16:04:33.098Z,47.25
2022-07-29T16:07:00.327Z,47.29
2022-07-29T16:09:28.500Z,47.02
2022-07-29T16:11:55.025Z,47.19
2022-07-29T16:14:21.712Z,46.94
2022-07-29T16:16:48.518Z,46.60
2022-07-29T16:19:16.354Z,45.20
2022-07-29T16:21:42.911Z,44.19
2022-07-29T16:24:09.637Z,43.21
2022-07-29T16:26:37.585Z,43.31
2022-07-29T16:29:04.755Z,43.39
2022-07-29T16:31:31.574Z,42.15
2022-07-29T16:33:58.172Z,41.39
2022-07-29T16:36:24.701Z,41.03
2022-07-29T16:38:51.354Z,40.71
2022-07-29T16:41:17.934Z,40.67
2022-07-29T16:43:45.887Z,41.12
2022-07-29T16:46:12.524Z,44.82
2022-07-29T16:48:45.438Z,45.61
2022-07-29T16:51:14.283Z,46.66
2022-07-29T16:53:41.241Z,48.03
2022-07-29T16:56:08.485Z,48.19
2022-07-29T16:58:43.449Z,48.70
2022-07-29T17:01:12.377Z,48.96
2022-07-29T17:03:39.115Z,49.28
2022-07-29T17:06:05.696Z,49.06
2022-07-29T17:08:32.217Z,49.94
2022-07-29T17:10:58.759Z,50.40
2022-07-29T17:13:25.299Z,50.80
2022-07-29T17:15:51.859Z,50.97
2022-07-29T17:18:19.798Z,51.44
2022-07-29T17:20:46.377Z,51.54
2022-07-29T17:23:12.944Z,51.28
2022-07-29T17:25:39.492Z,51.53
2022-07-29T17:28:06.066Z,51.81
2022-07-29T17:30:32.644Z,51.58
2022-07-29T17:32:59.177Z,51.74
2022-07-29T17:35:27.098Z,52.72
2022-07-29T17:37:53.744Z,53.10
2022-07-29T17:40:20.637Z,53.54
2022-07-29T17:42:47.192Z,52.85
2022-07-29T17:45:13.775Z,53.35
2022-07-29T17:47:40.291Z,53.21
2022-07-29T17:50:07.228Z,53.64
2022-07-29T17:52:35.637Z,53.46
2022-07-29T17:55:02.240Z,53.60
2022-07-29T17:57:28.796Z,53.89
2022-07-29T17:59:55.365Z,54.30
2022-07-29T18:02:21.969Z,54.67
2022-07-29T18:04:51.606Z,54.81
2022-07-29T18:07:18.178Z,55.40
2022-07-29T18:09:46.120Z,55.14
2022-07-29T18:12:12.683Z,55.84
2022-07-29T18:14:39.257Z,57.36
2022-07-29T18:17:05.838Z,58.26
2022-07-29T18:19:32.378Z,59.21
2022-07-29T18:22:04.031Z,59.12
2022-07-29T18:24:32.046Z,59.43
2022-07-29T18:27:00.238Z,60.18
2022-07-29T18:29:27.056Z,60.58
2022-07-29T18:31:53.579Z,60.80
2022-07-29T18:34:20.125Z,61.46
2022-07-29T18:36:47.149Z,62.18
2022-07-29T18:39:20.841Z,62.77
2022-07-29T18:41:50.125Z,62.94
2022-07-29T18:44:21.815Z,62.74
2022-07-29T18:46:49.307Z,63.92
2022-07-29T18:49:16.026Z,63.90
2022-07-29T18:51:42.918Z,64.73
2022-07-29T18:54:09.561Z,64.84
2022-07-29T18:56:36.628Z,65.37
2022-07-29T18:59:03.233Z,66.42
2022-07-29T19:01:31.592Z,65.61
2022-07-29T19:03:59.102Z,65.72
2022-07-29T19:06:26.171Z,65.54
2022-07-29T19:08:52.833Z,65.87
2022-07-29T19:11:19.389Z,66.02
2022-07-29T19:13:45.917Z,66.30
2022-07-29T19:16:12.554Z,66.09
2022-07-29T19:18:40.704Z,67.00
2022-07-29T19:21:07.410Z,66.59
2022-07-29T19:24:00.223Z,67.38
2022-07-29T19:26:20.930Z,67.24
2022-07-29T19:28:48.830Z,68.22
2022-07-29T19:31:16.208Z,68.75
2022-07-29T19:33:44.255Z,69.12
2022-07-29T19:36:10.927Z,69.27
2022-07-29T19:38:37.456Z,69.16
2022-07-29T19:41:04.022Z,68.95
2022-07-29T19:43:51.149Z,71.02
2022-07-29T19:46:17.166Z,70.25
2022-07-29T19:48:45.139Z,69.95
2022-07-29T19:51:11.850Z,70.26
2022-07-29T19:53:38.382Z,69.45
2022-07-29T19:56:05.533Z,69.45
2022-07-29T19:58:35.462Z,69.44
2022-07-29T20:01:02.762Z,70.90
2022-07-29T20:03:37.199Z,70.60
2022-07-29T20:06:05.427Z,70.71
2022-07-29T20:08:31.958Z,71.19
2022-07-29T20:10:58.529Z,71.77
2022-07-29T20:13:25.068Z,72.05
2022-07-29T20:15:51.664Z,73.36
2022-07-29T20:18:18.281Z,73.91
2022-07-29T20:20:44.818Z,73.88
2022-07-29T20:23:12.784Z,74.73
2022-07-29T20:25:39.303Z,74.66
2022-07-29T20:28:05.851Z,73.80
2022-07-29T20:30:32.394Z,74.83
2022-07-29T20:32:59.563Z,75.26
2022-07-29T20:35:26.288Z,76.14
2022-07-29T20:37:56.474Z,76.44
2022-07-29T20:40:25.088Z,76.46
2022-07-29T20:42:51.683Z,77.36
2022-07-29T20:45:18.201Z,77.91
2022-07-29T20:47:44.763Z,77.43
2022-07-29T20:50:11.590Z,78.58
2022-07-29T20:52:38.147Z,79.66
2022-07-29T20:55:05.726Z,81.91
2022-07-29T20:57:39.485Z,82.38
2022-07-29T21:00:07.768Z,83.04
2022-07-29T21:02:34.434Z,82.76
2022-07-29T21:05:01.061Z,83.31
2022-07-29T21:07:27.701Z,84.06
2022-07-29T21:09:54.229Z,83.67
2022-07-29T21:12:20.926Z,84.50
2022-07-29T21:14:48.828Z,84.66
2022-07-29T21:17:16.206Z,84.53
2022-07-29T21:19:42.888Z,86.38
2022-07-29T21:22:09.692Z,87.36
2022-07-29T21:24:36.476Z,86.82
2022-07-29T21:27:19.628Z,86.75
2022-07-29T21:29:49.154Z,87.25
2022-07-29T21:32:27.257Z,88.27
2022-07-29T21:34:56.766Z,88.44
2022-07-29T21:37:23.379Z,88.41
2022-07-29T21:39:49.976Z,88.11
2022-07-29T21:42:16.817Z,87.80
2022-07-29T21:44:43.366Z,86.88
2022-07-29T21:47:11.467Z,87.76
2022-07-29T21:49:38.415Z,87.51
2022-07-29T21:52:05.729Z,87.96
2022-07-29T21:54:34.586Z,87.26
2022-07-29T21:57:01.251Z,87.72
2022-07-29T21:59:27.794Z,87.83
2022-07-29T22:01:54.402Z,87.89
2022-07-29T22:04:22.357Z,86.90
2022-07-29T22:06:48.954Z,87.33
2022-07-29T22:09:15.480Z,86.66
2022-07-29T22:11:42.057Z,86.66
2022-07-29T22:14:08.591Z,87.00
2022-07-29T22:16:35.292Z,87.44
2022-07-29T22:19:01.954Z,87.82
2022-07-29T22:21:29.845Z,87.57
2022-07-29T22:23:56.393Z,87.81
2022-07-29T22:26:22.962Z,87.80
2022-07-29T22:28:50.142Z,88.15
2022-07-29T22:31:16.736Z,87.19
2022-07-29T22:33:43.350Z,87.41
2022-07-29T22:36:09.922Z,87.83
2022-07-29T22:38:37.812Z,88.03
2022-07-29T22:41:04.366Z,88.20
2022-07-29T22:43:30.901Z,89.41
2022-07-29T22:45:57.476Z,89.00
2022-07-29T22:48:24.093Z,89.46
2022-07-29T22:50:51.005Z,89.67
2022-07-29T22:53:17.572Z,89.01
2022-07-29T22:55:46.541Z,88.58
2022-07-29T22:58:13.098Z,89.00
2022-07-29T23:00:39.645Z,89.66
2022-07-29T23:03:06.184Z,89.64
2022-07-29T23:05:32.819Z,90.20
2022-07-29T23:07:59.395Z,90.56
2022-07-29T23:10:26.085Z,89.88
2022-07-29T23:12:54.016Z,89.87
2022-07-29T23:15:20.732Z,89.90
2022-07-29T23:17:47.275Z,89.54
2022-07-29T23:20:14.788Z,90.09
2022-07-29T23:22:41.795Z,90.20
2022-07-29T23:25:08.754Z,90.34
2022-07-29T23:27:35.497Z,90.48
2022-07-29T23:30:04.321Z,90.30
2022-07-29T23:32:30.873Z,90.44
2022-07-29T23:34:57.412Z,90.18
2022-07-29T23:37:24.078Z,89.85
2022-07-29T23:39:53.397Z,89.51
2022-07-29T23:42:19.965Z,88.78
2022-07-29T23:44:46.494Z,89.95
2022-07-29T23:47:14.406Z,91.08
2022-07-29T23:49:40.967Z,91.95
2022-07-29T23:52:07.598Z,91.73
2022-07-29T23:54:34.158Z,91.64
2022-07-29T23:57:01.009Z,91.77
2022-07-29T23:59:27.745Z,91.38
